sensor_id;sensor_type;location;lat;lon;timestamp;temperature;humidity
54558;DHT22;40452;50.080;20.040;2023-08-06T05:25:45;23.00;78.10
54558;DHT22;40452;50.080;20.040;2023-08-06T05:28:13;23.00;77.80
54558;DHT22;40452;50.080;20.040;2023-08-06T05:30:44;23.00;77.80
54558;DHT22;40452;50.080;20.040;2023-08-06T05:33:09;23.00;78.00
54558;DHT22;40452;50.080;20.040;2023-08-06T05:35:35;23.00;78.00
54558;DHT22;40452;50.080;20.040;2023-08-06T05:38:01;23.00;78.10
54558;DHT22;40452;50.080;20.040;2023-08-06T05:40:26;23.00;78.10
54558;DHT22;40452;50.080;20.040;2023-08-06T05:42:54;23.00;78.20
54558;DHT22;40452;50.080;20.040;2023-08-06T05:45:19;23.00;78.00
54558;DHT22;40452;50.080;20.040;2023-08-06T05:47:45;23.00;78.00
54558;DHT22;40452;50.080;20.040;2023-08-06T05:50:10;23.10;77.60
54558;DHT22;40452;50.080;20.040;2023-08-06T05:52:36;23.20;77.80
54558;DHT22;40452;50.080;20.040;2023-08-06T05:55:02;23.10;78.50
54558;DHT22;40452;50.080;20.040;2023-08-06T05:57:28;23.00;77.90
54558;DHT22;40452;50.080;20.040;2023-08-06T05:59:53;23.00;78.20
54558;DHT22;40452;50.080;20.040;2023-08-06T06:02:19;23.00;78.20
54558;DHT22;40452;50.080;20.040;2023-08-06T06:04:44;23.00;78.00
54558;DHT22;40452;50.080;20.040;2023-08-06T06:07:10;23.00;78.00
54558;DHT22;40452;50.080;20.040;2023-08-06T06:09:35;23.00;78.20
54558;DHT22;40452;50.080;20.040;2023-08-06T06:12:01;23.00;78.20
54558;DHT22;40452;50.080;20.040;2023-08-06T06:14:26;22.90;78.40
54558;DHT22;40452;50.080;20.040;2023-08-06T06:16:52;22.90;78.40
54558;DHT22;40452;50.080;20.040;2023-08-06T06:19:18;22.90;78.30
54558;DHT22;40452;50.080;20.040;2023-08-06T06:21:44;22.90;78.20
54558;DHT22;40452;50.080;20.040;2023-08-06T06:24:09;22.90;78.50
54558;DHT22;40452;50.080;20.040;2023-08-06T06:26:35;22.90;78.50
54558;DHT22;40452;50.080;20.040;2023-08-06T06:29:00;22.90;78.60
54558;DHT22;40452;50.080;20.040;2023-08-06T06:31:26;22.80;78.60
54558;DHT22;40452;50.080;20.040;2023-08-06T06:33:52;22.80;78.50
54558;DHT22;40452;50.080;20.040;2023-08-06T06:36:19;22.80;78.70
54558;DHT22;40452;50.080;20.040;2023-08-06T06:38:45;22.80;78.70
54558;DHT22;40452;50.080;20.040;2023-08-06T06:41:11;22.80;78.60
54558;DHT22;40452;50.080;20.040;2023-08-06T06:43:37;22.80;78.70
54558;DHT22;40452;50.080;20.040;2023-08-06T06:46:04;22.80;78.70
54558;DHT22;40452;50.080;20.040;2023-08-06T06:48:32;22.80;78.70
54558;DHT22;40452;50.080;20.040;2023-08-06T06:50:58;22.80;78.60
54558;DHT22;40452;50.080;20.040;2023-08-06T06:53:24;22.80;78.70
54558;DHT22;40452;50.080;20.040;2023-08-06T06:56:02;22.90;78.20
54558;DHT22;40452;50.080;20.040;2023-08-06T06:58:27;23.00;78.80
54558;DHT22;40452;50.080;20.040;2023-08-06T07:00:53;23.00;78.10
54558;DHT22;40452;50.080;20.040;2023-08-06T07:03:20;23.00;78.30
54558;DHT22;40452;50.080;20.040;2023-08-06T07:05:45;23.00;78.50
54558;DHT22;40452;50.080;20.040;2023-08-06T07:08:11;23.10;77.60
54558;DHT22;40452;50.080;20.040;2023-08-06T07:10:37;23.00;78.80
54558;DHT22;40452;50.080;20.040;2023-08-06T07:13:03;23.00;78.90
54558;DHT22;40452;50.080;20.040;2023-08-06T07:15:29;23.00;78.00
54558;DHT22;40452;50.080;20.040;2023-08-06T07:17:54;23.00;78.60
54558;DHT22;40452;50.080;20.040;2023-08-06T07:20:20;23.10;77.80
54558;DHT22;40452;50.080;20.040;2023-08-06T07:22:46;23.10;78.10
54558;DHT22;40452;50.080;20.040;2023-08-06T07:25:11;23.00;78.10
54558;DHT22;40452;50.080;20.040;2023-08-06T07:27:37;23.10;78.00
54558;DHT22;40452;50.080;20.040;2023-08-06T07:30:03;23.10;77.90
54558;DHT22;40452;50.080;20.040;2023-08-06T07:32:30;23.10;78.00
54558;DHT22;40452;50.080;20.040;2023-08-06T07:34:56;23.10;77.90
54558;DHT22;40452;50.080;20.040;2023-08-06T07:37:26;23.20;77.90
54558;DHT22;40452;50.080;20.040;2023-08-06T07:39:55;23.20;77.90
54558;DHT22;40452;50.080;20.040;2023-08-06T07:42:21;23.20;78.00
54558;DHT22;40452;50.080;20.040;2023-08-06T07:44:54;23.10;77.90
54558;DHT22;40452;50.080;20.040;2023-08-06T07:47:20;23.20;78.00
54558;DHT22;40452;50.080;20.040;2023-08-06T07:49:46;23.20;77.90
54558;DHT22;40452;50.080;20.040;2023-08-06T07:52:12;23.20;78.10
54558;DHT22;40452;50.080;20.040;2023-08-06T07:54:37;23.20;78.00
54558;DHT22;40452;50.080;20.040;2023-08-06T07:57:03;23.10;78.10
54558;DHT22;40452;50.080;20.040;2023-08-06T07:59:29;23.10;78.00
54558;DHT22;40452;50.080;20.040;2023-08-06T08:01:54;23.10;78.10
54558;DHT22;40452;50.080;20.040;2023-08-06T08:04:20;23.10;77.80
54558;DHT22;40452;50.080;20.040;2023-08-06T08:06:46;23.00;77.60
54558;DHT22;40452;50.080;20.040;2023-08-06T08:09:12;23.10;77.60
54558;DHT22;40452;50.080;20.040;2023-08-06T08:11:39;23.00;77.20
54558;DHT22;40452;50.080;20.040;2023-08-06T08:14:05;23.00;77.70
54558;DHT22;40452;50.080;20.040;2023-08-06T08:16:30;23.00;77.60
54558;DHT22;40452;50.080;20.040;2023-08-06T08:18:56;23.00;77.20
54558;DHT22;40452;50.080;20.040;2023-08-06T08:21:21;23.00;77.20
54558;DHT22;40452;50.080;20.040;2023-08-06T08:23:49;23.00;77.10
54558;DHT22;40452;50.080;20.040;2023-08-06T08:26:15;23.00;76.70
54558;DHT22;40452;50.080;20.040;2023-08-06T08:28:41;23.10;77.20
54558;DHT22;40452;50.080;20.040;2023-08-06T08:31:10;23.10;76.70
54558;DHT22;40452;50.080;20.040;2023-08-06T08:33:37;23.10;76.80
54558;DHT22;40452;50.080;20.040;2023-08-06T08:36:03;23.10;76.90
54558;DHT22;40452;50.080;20.040;2023-08-06T08:38:28;23.10;76.10
54558;DHT22;40452;50.080;20.040;2023-08-06T08:40:54;23.00;76.40
54558;DHT22;40452;50.080;20.040;2023-08-06T08:43:23;22.80;76.30
54558;DHT22;40452;50.080;20.040;2023-08-06T08:45:50;22.80;76.30
54558;DHT22;40452;50.080;20.040;2023-08-06T09:02:57;22.50;76.00
54558;DHT22;40452;50.080;20.040;2023-08-06T09:05:25;22.40;76.50
54558;DHT22;40452;50.080;20.040;2023-08-06T09:07:54;22.40;76.70
54558;DHT22;40452;50.080;20.040;2023-08-06T09:10:20;22.40;77.20
54558;DHT22;40452;50.080;20.040;2023-08-06T09:12:51;22.40;77.20
54558;DHT22;40452;50.080;20.040;2023-08-06T09:15:19;22.40;77.00
54558;DHT22;40452;50.080;20.040;2023-08-06T09:17:45;22.40;77.00
54558;DHT22;40452;50.080;20.040;2023-08-06T09:20:14;22.50;77.10
54558;DHT22;40452;50.080;20.040;2023-08-06T09:25:07;22.40;76.10
54558;DHT22;40452;50.080;20.040;2023-08-06T09:27:37;22.40;76.80
54558;DHT22;40452;50.080;20.040;2023-08-06T09:30:04;22.30;76.50
54558;DHT22;40452;50.080;20.040;2023-08-06T09:32:59;22.30;76.70
54558;DHT22;40452;50.080;20.040;2023-08-06T09:37:51;22.40;75.60
54558;DHT22;40452;50.080;20.040;2023-08-06T09:40:32;22.30;76.30
54558;DHT22;40452;50.080;20.040;2023-08-06T09:42:58;22.30;76.60
54558;DHT22;40452;50.080;20.040;2023-08-06T09:45:38;22.50;76.50
54558;DHT22;40452;50.080;20.040;2023-08-06T09:48:05;22.50;75.10
54558;DHT22;40452;50.080;20.040;2023-08-06T09:50:33;22.40;75.50
54558;DHT22;40452;50.080;20.040;2023-08-06T09:53:01;22.40;76.00
54558;DHT22;40452;50.080;20.040;2023-08-06T09:55:27;22.30;74.90
54558;DHT22;40452;50.080;20.040;2023-08-06T09:57:53;21.80;75.70
54558;DHT22;40452;50.080;20.040;2023-08-06T10:00:19;21.90;76.90
54558;DHT22;40452;50.080;20.040;2023-08-06T10:02:45;21.90;76.90
54558;DHT22;40452;50.080;20.040;2023-08-06T10:05:11;22.00;76.90
54558;DHT22;40452;50.080;20.040;2023-08-06T10:07:37;22.10;75.80
54558;DHT22;40452;50.080;20.040;2023-08-06T10:10:06;22.00;76.40
54558;DHT22;40452;50.080;20.040;2023-08-06T10:12:48;22.10;76.80
54558;DHT22;40452;50.080;20.040;2023-08-06T10:15:16;22.20;76.40
54558;DHT22;40452;50.080;20.040;2023-08-06T10:17:43;22.10;74.40
54558;DHT22;40452;50.080;20.040;2023-08-06T10:20:11;21.90;75.50
54558;DHT22;40452;50.080;20.040;2023-08-06T10:22:42;21.90;76.70
54558;DHT22;40452;50.080;20.040;2023-08-06T10:25:09;21.70;75.50
54558;DHT22;40452;50.080;20.040;2023-08-06T10:27:53;21.60;75.80
54558;DHT22;40452;50.080;20.040;2023-08-06T10:30:30;21.60;76.20
54558;DHT22;40452;50.080;20.040;2023-08-06T10:33:01;21.50;75.60
54558;DHT22;40452;50.080;20.040;2023-08-06T10:35:47;21.50;76.20
54558;DHT22;40452;50.080;20.040;2023-08-06T10:38:17;21.50;76.40
54558;DHT22;40452;50.080;20.040;2023-08-06T10:43:39;21.10;76.40
54558;DHT22;40452;50.080;20.040;2023-08-06T10:46:28;20.90;77.40
54558;DHT22;40452;50.080;20.040;2023-08-06T10:48:54;21.00;77.90
54558;DHT22;40452;50.080;20.040;2023-08-06T10:51:19;21.00;77.00
54558;DHT22;40452;50.080;20.040;2023-08-06T10:53:46;20.90;77.80
54558;DHT22;40452;50.080;20.040;2023-08-06T10:56:13;21.00;77.70
54558;DHT22;40452;50.080;20.040;2023-08-06T10:58:39;21.00;77.40
54558;DHT22;40452;50.080;20.040;2023-08-06T11:01:05;21.00;76.50
54558;DHT22;40452;50.080;20.040;2023-08-06T11:03:32;21.10;77.70
54558;DHT22;40452;50.080;20.040;2023-08-06T11:05:58;21.30;76.40
54558;DHT22;40452;50.080;20.040;2023-08-06T11:10:53;21.30;75.70
54558;DHT22;40452;50.080;20.040;2023-08-06T11:13:20;21.20;77.60
54558;DHT22;40452;50.080;20.040;2023-08-06T11:15:46;21.30;76.80
54558;DHT22;40452;50.080;20.040;2023-08-06T11:20:39;21.30;78.50
54558;DHT22;40452;50.080;20.040;2023-08-06T11:23:05;21.40;78.60
54558;DHT22;40452;50.080;20.040;2023-08-06T11:25:31;21.40;76.80
54558;DHT22;40452;50.080;20.040;2023-08-06T11:27:56;21.60;78.40
54558;DHT22;40452;50.080;20.040;2023-08-06T11:30:22;21.60;76.10
54558;DHT22;40452;50.080;20.040;2023-08-06T11:32:48;21.40;77.20
54558;DHT22;40452;50.080;20.040;2023-08-06T11:37:46;21.20;77.30
54558;DHT22;40452;50.080;20.040;2023-08-06T11:40:15;21.30;76.20
54558;DHT22;40452;50.080;20.040;2023-08-06T11:42:40;21.50;76.40
54558;DHT22;40452;50.080;20.040;2023-08-06T11:45:08;21.40;76.90
54558;DHT22;40452;50.080;20.040;2023-08-06T11:47:38;21.30;74.20
54558;DHT22;40452;50.080;20.040;2023-08-06T11:50:05;21.10;74.00
54558;DHT22;40452;50.080;20.040;2023-08-06T11:52:31;21.40;76.30
54558;DHT22;40452;50.080;20.040;2023-08-06T11:55:05;21.70;75.40
54558;DHT22;40452;50.080;20.040;2023-08-06T11:57:39;21.80;75.10
54558;DHT22;40452;50.080;20.040;2023-08-06T12:00:10;21.90;74.50
54558;DHT22;40452;50.080;20.040;2023-08-06T12:02:39;21.90;74.20
54558;DHT22;40452;50.080;20.040;2023-08-06T12:07:38;22.10;74.40
54558;DHT22;40452;50.080;20.040;2023-08-06T12:10:04;22.10;74.00
54558;DHT22;40452;50.080;20.040;2023-08-06T12:12:30;22.20;74.10
54558;DHT22;40452;50.080;20.040;2023-08-06T12:14:56;22.20;73.90
54558;DHT22;40452;50.080;20.040;2023-08-06T12:17:25;22.20;73.70
54558;DHT22;40452;50.080;20.040;2023-08-06T12:19:51;22.20;73.40
54558;DHT22;40452;50.080;20.040;2023-08-06T12:22:17;22.20;73.30
54558;DHT22;40452;50.080;20.040;2023-08-06T12:24:43;22.30;73.60
54558;DHT22;40452;50.080;20.040;2023-08-06T12:27:09;22.20;72.90
54558;DHT22;40452;50.080;20.040;2023-08-06T12:29:36;22.20;73.00
54558;DHT22;40452;50.080;20.040;2023-08-06T12:32:03;22.20;73.30
54558;DHT22;40452;50.080;20.040;2023-08-06T12:34:29;22.20;72.90
